Másolás Excelbe

Csehország - kupa Szögletstatisztika és eredmények

A TotalCorner Csehország - kupa szögletstatisztikát, sorsolást, eredményeket, tabellát, lapstatisztikát és szorzó-összehasonlítást kínál. Kövesd nyomon a legutóbbi Csehország - kupa mérkőzést a teljes idős szögletekkel, félidős szögletekkel, gólokkal, lapokkal és mérkőzésadatokkal.

kezdési idő Hazai Állás Vendég Hendikep Szöglet Félidő szöglet Ázsiai szgl. Szöglet F/A Gólok Gól F/A Támadás Lövések Elemzés
August 2026
08/12 16:00 Teljes SK Benesov 0 - 1 FC Silon Taborsko +1.0 4 - 11 2 - 4 3.0 Under 61 - 72 9 - 11
08/12 16:00 Teljes SK Krumvir 0 - 3 Hanacka Slavia Kromeriz +1.0 2 - 8 0 - 7 3.0 Push 64 - 100 9 - 20
08/12 16:00 Teljes FK Trutnov 2 - 5 Benatky Nad Jizerou +1.0 3 - 4 1 - 2 3.0 Over 97 - 96 12 - 11
08/12 16:00 Teljes SK Senco Doubravka 2 - 5 Motorlet Praha +1.0, +1.5 9 - 6 3 - 4 3.0 Over 113 - 133 7 - 23
08/12 16:00 Teljes Sokol Tasovice 2 - 3 CSK Uhersky Brod +0.5, +1.0 5 - 5 2 - 3 3.0 Over 119 - 114 11 - 16
08/12 16:00 Teljes FK Horni Redice 3 - 0 MFK Chrudim -0.5, -1.0 4 - 2 3 - 2 3.0, 3.5 Under 122 - 82 7 - 7
08/12 16:00 Teljes FC Krimice 2 - 0 Ceske Budejovice +0.5 11 - 4 8 - 1 3.0, 3.5 Under 106 - 115 10 - 7
08/12 16:00 Teljes FK Brandys nad Labem 1 - 1 Varnsdorf +1.5, +2.0 3 - 10 1 - 3 3.5 Under 59 - 85 9 - 19
08/12 16:00 Teljes Bzenec 2 - 0 FK Hodonin +1.0 3 - 12 2 - 4 3.0, 3.5 Under 61 - 99 9 - 23
08/12 16:00 Teljes Slavoj Cesky Krumlov 3 - 4 Kraluv Dvur +1.5 4 - 6 2 - 0 3.0, 3.5 Over 91 - 123 8 - 11
08/12 16:00 MFK Vitkovice 0 - 0 FK Nove Sady -1.0, -1.5 0 - 0 0 - 0 3.0 - -
08/12 16:00 Teljes TJ Sokol Belotin 1 - 3 MFK Havirov +1.5 6 - 5 1 - 3 3.0, 3.5 Over 81 - 114 13 - 16
08/11 17:00 Teljes SK Vysoke Myto 2 - 4 FC Sellier & Bellot Vlasim +1.5 7 - 4 3 - 1 3.5 Over 85 - 94 8 - 11
08/11 17:00 Teljes Sokol Hostoun 0 - 4 SK Kladno +1.5 4 - 3 2 - 3 3.5 Over 116 - 124 7 - 12
08/11 17:00 Teljes TJ Hluboka nad Vltavou 1 - 0 Aritma Praga +1.0, +1.5 12 - 1 5 - 0 3.5 Under 138 - 82 13 - 3
August 2026
08/02 16:00 Teljes Dvur Kralove nad Labem 1 - 2 Spartak Police Nad Metuji +0.5 2 - 6 0 - 5 3.0 Push 70 - 110 5 - 14
08/02 16:00 Teljes Karlovy Vary 1 - 1 Chomutov 0.0, -0.5 3 - 4 1 - 1 3.0 Under 119 - 113 11 - 5
08/02 16:00 Teljes SK Vysoke Myto 8 - 1 Letohrad -1.5 13 - 4 10 - 2 3.5 Over 81 - 90 17 - 11
08/01 16:00 Teljes SK Sparta Kolin 0 - 3 FK Horni Redice +0.5, +1.0 2 - 5 2 - 4 3.0, 3.5 Under 104 - 103 2 - 10
08/01 16:00 Teljes SK Strakonice 2 - 1 FC Milevsko -0.5 9 - 1 5 - 0 3.0 Push 81 - 62 14 - 6
08/01 16:00 Teljes Spartak Pribram 2 - 2 Povltavska FA +1.0 9 - 6 4 - 3 3.0, 3.5 Over 72 - 57 12 - 9
08/01 16:00 Teljes SK Kosmonosy 1 - 4 FK Neratovice-Byskovice +0.5, +1.0 2 - 3 2 - 0 3.0, 3.5 Over 60 - 88 5 - 16
08/01 16:00 Teljes SK Slany 0 - 2 SK Sokol Brozany +0.5, +1.0 3 - 4 2 - 2 3.0 Under 90 - 106 13 - 16
08/01 16:00 Teljes SK Steti 0 - 6 Varnsdorf +1.0, +1.5 4 - 2 0 - 2 3.5 Over 108 - 114 13 - 17
08/01 16:00 Teljes Spartak Rychnov 0 - 2 FK Chlumec nad Cidlinou +1.0, +1.5 2 - 9 1 - 6 2.5, 3.0 Under 74 - 135 3 - 20
08/01 16:00 Teljes Slovan Velvary 0 - 1 FK Brandys nad Labem 0.0, -0.5 5 - 7 3 - 3 3.0 Under 131 - 106 4 - 14
08/01 16:00 Teljes Hvezda Cheb 0 - 3 Banik Sokolov +0.5, +1.0 2 - 1 0 - 1 3.0 Push 97 - 109 12 - 16
08/01 16:00 Teljes FC Tempo Prague 2 - 3 FK Loko Praha 0.0, +0.5 13 - 6 7 - 3 3.0 Over 70 - 83 17 - 12
08/01 09:30 Teljes FK Prepere 3 - 0 Velke Hamry 0.0, +0.5 3 - 7 0 - 2 3.0, 3.5 Under 76 - 70 16 - 13
08/01 09:30 Teljes FK Klasterec nad Ohri 4 - 3 FK Ostrov +1.0 5 - 4 3 - 3 3.5 Over 111 - 124 14 - 11
08/01 09:30 Teljes TJ Jiskra Usti Nad Orlici 2 - 1 TJ Svitavy -1.0, -1.5 2 - 3 0 - 3 3.0, 3.5 Under 102 - 116 11 - 9
08/01 09:15 Teljes SK Petrin Plzen 2 - 3 FK Komarov -0.5, -1.0 6 - 4 1 - 3 3.0 Over 109 - 111 9 - 7
08/01 09:15 Teljes Slavia Hradec Kralove 1 - 2 FK Trutnov +0.5 3 - 7 2 - 4 3.5 Under 79 - 87 6 - 14
07/31 17:00 Teljes Slavoj Vysehrad 0 - 2 Sokol Hostoun +1.0 5 - 16 3 - 7 3.5 Under 57 - 71 5 - 26
07/31 17:00 Teljes FC Rokycany 1 - 0 SK Horovice -0.5 3 - 5 2 - 2 2.0, 2.5 Under 99 - 115 9 - 7
07/30 17:00 Teljes TJ Hluboka nad Vltavou 3 - 2 Spartak Sobeslav 0.0, -0.5 5 - 4 2 - 2 3.5 Over 130 - 91 10 - 7
07/29 17:00 Teljes Stara Rise 0 - 4 Havlickuv Brod +0.5, +1.0 4 - 5 1 - 1 3.0, 3.5 Over 77 - 128 4 - 15
July 2026
07/26 16:00 Teljes FC Chotebor 2 - 0 Velke Mezirici 0.0 6 - 7 3 - 3 3.0, 3.5 Under 102 - 75 8 - 10
07/26 16:00 Teljes SK Krumvir 2 - 1 SC Znojmo +0.5 2 - 2 1 - 1 3.0, 3.5 Under 131 - 101 10 - 9
07/26 16:00 Teljes TJ Sokol Bedrichov 1 - 3 AFC Humpolec 0.0 3 - 2 0 - 2 3.0 Over 120 - 116 7 - 11

Maradj naprakész a TotalCorner segítségével

Csatlakozz ingyenes Telegram tippek csatornánkhoz. Egyéni meccsértesítéseket is beállíthatsz.

Ingyenes Telegram tippek Egyéni értesítések